This demonstration page uses our WeatherBlox Daily Observations layout. Learn more.

39.29038, -76.61219

Hourly Observations for July 28, 2015

Temp ( °F °C ) Dew Point ( °F °C ) Humidity (%) Winds ( mph kmh ) Pressure ( in mb ) Visibility ( mi km ) Precip ( " mm )
12:54 am 00:54 Mostly Clear 79 26 73 23 84 84 undefined N/A 30 1016 N/A 0 0
1:54 am 01:54 Mostly Clear 79 26 73 23 84 84 undefined N/A 30 1016 N/A 0 0
2:54 am 02:54 undefined 79 26 73 23 84 84 undefined N/A 30 1016 N/A 0 0
3:54 am 03:54 Mostly Clear 77 25 73 23 89 89 undefined N/A 30 1016 N/A 0 0
4:54 am 04:54 Cloudy 77 25 73 23 89 89 undefined N/A 30 1016 N/A 0 0
5:54 am 05:54 undefined 77 25 73 23 89 89 undefined N/A 30 1016 N/A 0 0
6:54 am 06:54 Cloudy 77 25 73 23 89 89 undefined N/A 30 1016 N/A 0 0
7:54 am 07:54 Sunny 77 25 73 23 89 89 undefined N/A 30.03 1017 N/A 0 0
8:54 am 08:54 Mostly Sunny 79 26 73 23 84 84 undefined N/A 30.03 1017 N/A 0 0
9:54 am 09:54 undefined 82 28 72 22 70 70 undefined N/A 30 1016 N/A 0 0
10:54 am 10:54 Cloudy 84 29 73 23 70 70 undefined N/A 30 1016 2.5 4.02336 0 0
11:54 am 11:54 Partly Cloudy 86 30 73 23 66 66 undefined N/A 30 1016 N/A 0 0
12:54 pm 12:54 undefined 88 31 70 21 55 55 undefined N/A 30 1016 N/A 0 0
1:54 pm 13:54 undefined 88 31 70 21 55 55 undefined N/A 29.97 1015 N/A 0 0
2:54 pm 14:54 Cloudy 90 32 68 20 49 49 undefined N/A 29.97 1015 N/A 0 0
3:54 pm 15:54 undefined 90 32 68 20 49 49 undefined N/A 29.97 1015 N/A 0 0
4:54 pm 16:54 undefined 90 32 66 19 46 46 undefined N/A 29.97 1015 N/A 0 0
5:54 pm 17:54 Sunny 90 32 66 19 46 46 undefined N/A 29.94 1014 N/A 0 0
6:54 pm 18:54 undefined 88 31 64 18 46 46 undefined N/A 29.97 1015 N/A 0 0
7:54 pm 19:54 Mostly Sunny 86 30 70 21 59 59 undefined N/A 29.97 1015 N/A 0 0
8:54 pm 20:54 undefined 84 29 70 21 62 62 undefined N/A 29.97 1015 N/A 0 0
9:54 pm 21:54 Mostly Clear 82 28 72 22 70 70 undefined N/A 30 1016 N/A 0 0
10:54 pm 22:54 undefined 82 28 70 21 66 66 undefined N/A 30 1016 N/A 0 0
11:54 pm 23:54 Mostly Clear 81 27 72 22 74 74 undefined N/A 30 1016 N/A 0 0

Powered by AerisWeather